Time;durP1;ratioP1;P1;durP2;ratioP2;P2;SDS_P1;SDS_P2;PMS_P1;PMS_P2;Temp;Humidity;BMP_temperature;BMP_pressure;BME280_temperature;BME280_humidity;BME280_pressure;Samples;Min_cycle;Max_cycle;Signal;HPM_P1;HPM_P2
2023/11/15 00:01:51;;;;;;;2.10;1.13;;;11.30;78.70;;;;;;5012585;28;20213;-75
2023/11/15 00:04:19;;;;;;;2.20;1.10;;;11.40;78.10;;;;;;5011938;28;20441;-75
2023/11/15 00:06:45;;;;;;;1.67;1.00;;;11.40;77.00;;;;;;5004100;28;20302;-75
2023/11/15 00:09:11;;;;;;;2.80;0.80;;;11.50;76.10;;;;;;5013507;28;20939;-75
2023/11/15 00:11:36;;;;;;;2.57;1.10;;;11.60;73.70;;;;;;5008674;28;20507;-74
2023/11/15 00:14:02;;;;;;;1.27;0.90;;;11.70;73.70;;;;;;5011615;28;20198;-75
2023/11/15 00:16:28;;;;;;;1.80;0.77;;;11.70;73.20;;;;;;5015232;28;20205;-76
2023/11/15 00:18:54;;;;;;;5.40;1.17;;;11.70;73.70;;;;;;5012297;28;20197;-75
2023/11/15 00:21:20;;;;;;;4.90;0.80;;;11.60;74.30;;;;;;5012206;28;20424;-76
2023/11/15 00:23:46;;;;;;;2.40;0.80;;;11.50;74.90;;;;;;5011819;28;20464;-77
2023/11/15 00:26:12;;;;;;;2.70;0.90;;;11.50;75.20;;;;;;5011900;28;20977;-76
2023/11/15 00:28:39;;;;;;;2.60;1.13;;;11.40;75.80;;;;;;5011300;28;20193;-76
2023/11/15 00:31:05;;;;;;;7.73;1.30;;;11.40;76.40;;;;;;5012028;28;20181;-77
2023/11/15 00:33:31;;;;;;;2.93;0.90;;;11.40;76.50;;;;;;5009412;28;20937;-76
2023/11/15 00:35:56;;;;;;;1.70;0.90;;;11.30;77.00;;;;;;5010826;28;20429;-76
2023/11/15 00:38:23;;;;;;;2.77;0.90;;;11.30;77.00;;;;;;5008380;28;20181;-74
2023/11/15 00:40:49;;;;;;;3.33;1.07;;;11.30;76.10;;;;;;5009092;28;20251;-75
2023/11/15 00:43:17;;;;;;;2.90;1.00;;;11.30;76.20;;;;;;5009856;28;20931;-77
2023/11/15 00:45:43;;;;;;;2.10;1.17;;;11.30;75.90;;;;;;5009283;28;20480;-74
2023/11/15 00:48:09;;;;;;;3.20;0.97;;;11.40;75.70;;;;;;5006015;28;20510;-75
2023/11/15 00:50:35;;;;;;;2.53;0.90;;;11.40;75.50;;;;;;5008283;28;20969;-74
2023/11/15 00:53:02;;;;;;;2.90;1.53;;;11.40;75.10;;;;;;5015089;28;20186;-76
2023/11/15 00:55:28;;;;;;;2.50;1.00;;;11.40;74.90;;;;;;5015671;28;20662;-76
2023/11/15 00:57:55;;;;;;;1.57;1.13;;;11.40;74.60;;;;;;5015185;28;20431;-76
2023/11/15 01:00:25;;;;;;;2.67;1.10;;;11.40;74.60;;;;;;5015973;28;20185;-76
2023/11/15 01:02:54;;;;;;;2.80;1.03;;;11.40;74.30;;;;;;5015273;28;20430;-76
2023/11/15 01:05:20;;;;;;;2.43;1.10;;;11.40;74.20;;;;;;5014923;28;20492;-74
2023/11/15 01:07:47;;;;;;;2.60;1.00;;;11.40;73.60;;;;;;5015595;28;20839;-76
2023/11/15 01:10:13;;;;;;;16.30;1.90;;;11.40;73.90;;;;;;5015737;28;20412;-75
2023/11/15 01:12:40;;;;;;;3.43;1.03;;;11.40;73.60;;;;;;5015890;28;20419;-77
2023/11/15 01:15:06;;;;;;;3.23;1.10;;;11.40;73.60;;;;;;5017251;28;20432;-76
2023/11/15 01:17:35;;;;;;;7.57;1.40;;;11.40;73.20;;;;;;5015753;28;20462;-75
2023/11/15 01:20:01;;;;;;;5.40;3.20;;;11.40;72.90;;;;;;5020989;28;20492;-74
2023/11/15 01:22:27;;;;;;;2.40;0.90;;;11.50;72.30;;;;;;5021286;28;20464;-74
2023/11/15 01:24:53;;;;;;;2.47;1.00;;;11.50;72.70;;;;;;5015400;28;20460;-76
2023/11/15 01:27:18;;;;;;;3.00;1.00;;;11.50;72.90;;;;;;5024200;28;20280;-76
2023/11/15 01:29:44;;;;;;;3.77;1.57;;;11.40;73.20;;;;;;5023873;28;20240;-75
2023/11/15 01:32:10;;;;;;;2.20;1.07;;;11.40;73.90;;;;;;5019310;28;20182;-75
2023/11/15 01:34:36;;;;;;;2.40;0.90;;;11.40;74.00;;;;;;5020097;28;20543;-74
2023/11/15 01:37:02;;;;;;;1.60;1.13;;;11.30;74.60;;;;;;5013181;28;20194;-75
2023/11/15 01:39:28;;;;;;;4.03;0.90;;;11.30;74.80;;;;;;5005423;28;20491;-74
2023/11/15 01:41:56;;;;;;;4.50;1.00;;;11.20;75.20;;;;;;5033337;28;20424;-75
2023/11/15 01:44:22;;;;;;;3.20;1.40;;;11.20;75.50;;;;;;5033011;28;20496;-75
2023/11/15 01:46:49;;;;;;;5.33;1.27;;;11.10;75.90;;;;;;5029264;28;20477;-75
2023/11/15 01:49:21;;;;;;;1.93;1.20;;;11.10;76.40;;;;;;5019715;28;20429;-74
2023/11/15 01:51:48;;;;;;;2.87;1.57;;;11.00;76.70;;;;;;5015145;28;20444;-76
2023/11/15 01:54:16;;;;;;;4.27;2.20;;;11.00;77.30;;;;;;5014398;28;20479;-76
2023/11/15 01:56:42;;;;;;;4.70;1.17;;;10.90;77.70;;;;;;5014609;28;20439;-74
2023/11/15 01:59:08;;;;;;;4.47;1.10;;;10.90;78.00;;;;;;5014994;28;20979;-75
2023/11/15 02:01:34;;;;;;;3.93;0.90;;;10.90;78.30;;;;;;5015011;28;20445;-72
2023/11/15 02:04:00;;;;;;;2.97;1.20;;;10.80;79.00;;;;;;5020309;28;20449;-77
2023/11/15 02:06:30;;;;;;;5.50;1.10;;;10.70;79.20;;;;;;5018452;28;20476;-74
2023/11/15 02:08:56;;;;;;;5.80;1.17;;;10.70;80.20;;;;;;5019549;28;20182;-76
2023/11/15 02:11:22;;;;;;;3.93;1.00;;;10.60;80.20;;;;;;5018897;28;20963;-75
2023/11/15 02:13:48;;;;;;;2.03;1.00;;;10.60;80.90;;;;;;5018379;28;20506;-75
2023/11/15 02:16:14;;;;;;;2.13;1.10;;;10.50;80.80;;;;;;5016116;28;20437;-76
2023/11/15 02:18:39;;;;;;;1.60;1.00;;;10.50;81.10;;;;;;5015552;28;20194;-74
2023/11/15 02:21:05;;;;;;;3.43;1.30;;;10.50;81.10;;;;;;5014372;28;20289;-74
2023/11/15 02:23:31;;;;;;;2.00;1.27;;;10.50;81.20;;;;;;5013838;28;20599;-73
2023/11/15 02:25:57;;;;;;;3.53;1.20;;;10.50;81.20;;;;;;5016784;28;20477;-73
2023/11/15 02:28:22;;;;;;;2.60;1.17;;;10.40;81.20;;;;;;5019848;28;20447;-74
2023/11/15 02:30:48;;;;;;;3.10;1.20;;;10.40;81.50;;;;;;5015989;28;20193;-74
2023/11/15 02:33:14;;;;;;;2.37;1.13;;;10.40;82.10;;;;;;5014298;28;20692;-75
2023/11/15 02:35:41;;;;;;;2.73;1.20;;;10.30;82.40;;;;;;5012952;28;20417;-74
2023/11/15 02:38:06;;;;;;;5.20;1.10;;;10.30;82.50;;;;;;5013924;28;20670;-76
2023/11/15 02:40:32;;;;;;;1.53;1.00;;;10.20;82.70;;;;;;5013782;28;20459;-73
2023/11/15 02:42:58;;;;;;;7.60;1.80;;;10.20;82.80;;;;;;5010447;28;20197;-75
2023/11/15 02:45:24;;;;;;;4.10;1.00;;;10.20;82.70;;;;;;4995542;28;20768;-74
2023/11/15 02:47:49;;;;;;;2.00;1.20;;;10.30;82.70;;;;;;5011066;28;20515;-75
2023/11/15 02:50:15;;;;;;;4.47;1.33;;;10.20;82.50;;;;;;5009680;28;20182;-75
2023/11/15 02:52:41;;;;;;;2.30;1.20;;;10.20;82.50;;;;;;5012831;28;20426;-75
2023/11/15 02:55:08;;;;;;;5.00;1.43;;;10.20;82.40;;;;;;5012732;28;20210;-75
2023/11/15 02:57:34;;;;;;;4.93;1.50;;;10.20;82.10;;;;;;5013752;28;20190;-76
2023/11/15 03:00:00;;;;;;;2.30;1.47;;;10.20;81.90;;;;;;5012271;28;20955;-76
2023/11/15 03:02:25;;;;;;;6.20;1.50;;;10.20;81.70;;;;;;5014057;28;20546;-74
2023/11/15 03:04:51;;;;;;;1.70;0.90;;;10.20;81.70;;;;;;5012805;28;20202;-74
2023/11/15 03:07:17;;;;;;;1.63;1.00;;;10.20;81.80;;;;;;5012985;28;20217;-75
2023/11/15 03:09:43;;;;;;;4.73;1.40;;;10.20;80.60;;;;;;5013401;28;20189;-75
2023/11/15 03:12:08;;;;;;;2.63;1.47;;;10.20;80.50;;;;;;5011092;28;20514;-75
2023/11/15 03:14:34;;;;;;;4.73;1.17;;;10.20;80.50;;;;;;5013008;28;20205;-76
2023/11/15 03:17:12;;;;;;;3.67;1.10;;;10.20;80.50;;;;;;5013994;28;20189;-76
2023/11/15 03:19:37;;;;;;;2.17;1.10;;;10.30;80.20;;;;;;4994203;28;20197;-75
2023/11/15 03:22:03;;;;;;;4.50;1.13;;;10.30;79.90;;;;;;5013080;28;20433;-75
2023/11/15 03:24:29;;;;;;;4.57;1.23;;;10.30;79.90;;;;;;5014201;28;20278;-76
2023/11/15 03:26:55;;;;;;;4.63;1.33;;;10.30;79.70;;;;;;5010055;28;20283;-75
2023/11/15 03:29:20;;;;;;;2.90;1.30;;;10.40;79.90;;;;;;5012780;28;20465;-76
2023/11/15 03:31:46;;;;;;;3.87;1.20;;;10.30;79.90;;;;;;5012740;28;20469;-76
2023/11/15 03:34:12;;;;;;;1.80;0.90;;;10.40;79.70;;;;;;5009767;28;20297;-76
2023/11/15 03:36:40;;;;;;;7.23;1.77;;;10.50;79.60;;;;;;4990439;28;20193;-76
2023/11/15 03:39:08;;;;;;;2.10;1.10;;;10.50;80.20;;;;;;5012550;28;20511;-74
2023/11/15 03:41:34;;;;;;;3.63;1.23;;;10.40;80.20;;;;;;5015322;28;20429;-75
2023/11/15 03:44:00;;;;;;;2.67;1.00;;;10.40;80.20;;;;;;5013326;28;20452;-75
2023/11/15 03:46:26;;;;;;;6.20;1.30;;;10.40;80.20;;;;;;5012910;28;20885;-76
2023/11/15 03:48:52;;;;;;;2.37;1.10;;;10.30;80.50;;;;;;5012037;28;20190;-74
2023/11/15 03:51:18;;;;;;;6.13;1.23;;;10.30;80.90;;;;;;5012255;28;20429;-77
2023/11/15 03:53:44;;;;;;;3.00;1.33;;;10.30;81.20;;;;;;5009731;28;20461;-75
2023/11/15 03:56:10;;;;;;;2.30;1.20;;;10.20;81.20;;;;;;5015373;28;20189;-75
2023/11/15 03:58:36;;;;;;;3.30;1.20;;;10.20;81.50;;;;;;5004791;28;20932;-74
2023/11/15 04:01:04;;;;;;;2.10;1.30;;;10.20;81.80;;;;;;5034110;28;20433;-75
2023/11/15 04:03:30;;;;;;;2.20;1.17;;;10.20;81.70;;;;;;5028717;28;20507;-74
2023/11/15 04:05:55;;;;;;;5.27;1.37;;;10.20;81.50;;;;;;5016003;28;20472;-75
2023/11/15 04:08:21;;;;;;;2.57;0.90;;;10.20;81.50;;;;;;5012641;28;20538;-74
2023/11/15 04:10:48;;;;;;;1.83;1.17;;;10.20;81.20;;;;;;5012585;28;20178;-75
2023/11/15 04:13:14;;;;;;;7.83;1.60;;;10.30;81.80;;;;;;5012007;28;20673;-75
2023/11/15 04:15:40;;;;;;;2.20;1.60;;;10.20;81.90;;;;;;5009283;28;20439;-75
2023/11/15 04:18:05;;;;;;;6.83;1.47;;;10.10;82.10;;;;;;5012190;28;20428;-75
2023/11/15 04:20:31;;;;;;;3.63;1.17;;;10.10;82.10;;;;;;5012119;28;20181;-76
2023/11/15 04:22:57;;;;;;;2.90;1.50;;;10.10;82.10;;;;;;5011816;28;20651;-75
2023/11/15 04:25:24;;;;;;;3.77;1.50;;;10.10;82.10;;;;;;5012287;28;20253;-76
2023/11/15 04:27:50;;;;;;;4.57;1.40;;;10.10;81.90;;;;;;5008646;28;20475;-75
2023/11/15 04:30:16;;;;;;;2.73;1.43;;;10.10;82.10;;;;;;5008053;28;20472;-75
2023/11/15 04:32:43;;;;;;;2.70;1.30;;;10.10;81.70;;;;;;5007912;28;20451;-75
2023/11/15 04:35:09;;;;;;;4.20;1.27;;;10.10;81.70;;;;;;5008063;28;20208;-75
2023/11/15 04:37:34;;;;;;;2.60;1.20;;;10.20;81.50;;;;;;5009221;28;20437;-74
2023/11/15 04:40:00;;;;;;;2.70;1.10;;;10.20;81.20;;;;;;5009005;28;20273;-74
2023/11/15 04:42:26;;;;;;;1.90;1.50;;;10.20;80.90;;;;;;4990459;28;20189;-77
2023/11/15 04:44:52;;;;;;;7.00;1.67;;;10.20;81.20;;;;;;5011519;28;20221;-76
2023/11/15 04:47:18;;;;;;;3.27;1.20;;;10.30;80.90;;;;;;4992091;28;20841;-76
2023/11/15 04:49:45;;;;;;;3.90;1.50;;;10.30;80.60;;;;;;5009604;28;20186;-75
2023/11/15 04:52:11;;;;;;;3.30;1.10;;;10.30;80.60;;;;;;5011009;28;20946;-76
2023/11/15 04:54:37;;;;;;;2.67;1.07;;;10.30;80.60;;;;;;5005935;28;20468;-75
2023/11/15 04:57:03;;;;;;;2.20;1.00;;;10.30;80.30;;;;;;5011490;28;20508;-75
2023/11/15 04:59:29;;;;;;;1.50;1.00;;;10.30;80.50;;;;;;5011271;28;20193;-76
2023/11/15 05:01:55;;;;;;;3.90;1.60;;;10.30;80.60;;;;;;5008268;28;20440;-75
2023/11/15 05:04:21;;;;;;;3.77;1.37;;;10.30;80.60;;;;;;4989546;28;20983;-76
2023/11/15 05:06:48;;;;;;;4.90;1.20;;;10.30;80.80;;;;;;5012656;28;20568;-75
2023/11/15 05:09:14;;;;;;;4.60;1.50;;;10.30;80.90;;;;;;5011607;28;20451;-74
2023/11/15 05:11:41;;;;;;;5.53;1.30;;;10.20;81.90;;;;;;5012855;28;20429;-74
2023/11/15 05:14:06;;;;;;;2.97;1.20;;;10.20;82.40;;;;;;5011292;28;20219;-75
2023/11/15 05:16:32;;;;;;;6.37;0.97;;;10.10;82.80;;;;;;5012151;28;20437;-74
2023/11/15 05:18:58;;;;;;;2.40;1.20;;;10.00;83.30;;;;;;5012828;28;20576;-74
2023/11/15 05:21:24;;;;;;;5.03;1.50;;;10.00;83.70;;;;;;5013217;28;20523;-74
2023/11/15 05:23:50;;;;;;;2.80;1.57;;;9.90;84.10;;;;;;5012791;28;20202;-75
2023/11/15 05:26:17;;;;;;;1.33;0.90;;;9.90;84.60;;;;;;5007795;28;20268;-73
2023/11/15 05:28:43;;;;;;;4.33;1.77;;;9.90;84.70;;;;;;5008715;28;20448;-75
2023/11/15 05:31:08;;;;;;;3.20;1.30;;;9.80;85.00;;;;;;5007482;28;20449;-74
2023/11/15 05:33:34;;;;;;;3.47;1.30;;;9.80;85.20;;;;;;5010511;28;20289;-73
2023/11/15 05:36:00;;;;;;;4.03;1.57;;;9.80;85.30;;;;;;5004189;28;20194;-75
2023/11/15 05:38:26;;;;;;;2.90;1.30;;;9.80;85.30;;;;;;5013220;28;20641;-75
2023/11/15 05:40:53;;;;;;;4.40;1.37;;;9.80;85.30;;;;;;5013828;28;20182;-73
2023/11/15 05:43:19;;;;;;;3.20;1.90;;;9.70;85.30;;;;;;5013809;28;20535;-75
2023/11/15 05:45:44;;;;;;;7.03;1.70;;;9.70;85.70;;;;;;5014207;28;20551;-76
2023/11/15 05:48:10;;;;;;;1.90;1.50;;;9.70;86.20;;;;;;5013822;28;20186;-76
2023/11/15 05:50:35;;;;;;;4.73;2.07;;;9.60;86.50;;;;;;5014914;28;20178;-74
2023/11/15 05:53:01;;;;;;;4.90;1.47;;;9.60;86.60;;;;;;5000994;28;20670;-75
2023/11/15 05:55:28;;;;;;;4.90;1.73;;;9.50;86.80;;;;;;5014147;28;20264;-73
2023/11/15 05:57:54;;;;;;;4.70;1.67;;;9.50;86.90;;;;;;5017282;28;20720;-75
2023/11/15 06:00:22;;;;;;;3.00;1.67;;;9.50;87.10;;;;;;5015629;28;20425;-75
2023/11/15 06:02:49;;;;;;;4.33;1.77;;;9.40;87.40;;;;;;5011186;28;20198;-76
2023/11/15 06:05:18;;;;;;;5.40;1.73;;;9.40;87.60;;;;;;5012280;28;20467;-74
2023/11/15 06:07:44;;;;;;;6.47;1.60;;;9.40;87.60;;;;;;5010124;28;20898;-76
2023/11/15 06:10:11;;;;;;;2.40;1.23;;;9.40;87.60;;;;;;5011254;28;20551;-75
2023/11/15 06:12:38;;;;;;;3.80;1.47;;;9.40;87.70;;;;;;5013922;28;20432;-72
2023/11/15 06:15:05;;;;;;;5.40;1.67;;;9.40;88.00;;;;;;5022352;28;20506;-75
2023/11/15 06:17:31;;;;;;;6.60;1.60;;;9.40;88.40;;;;;;5014667;28;20816;-75
2023/11/15 06:19:57;;;;;;;4.10;0.87;;;9.30;87.70;;;;;;5014368;28;20433;-75
2023/11/15 06:22:23;;;;;;;3.83;1.13;;;9.30;87.10;;;;;;5011117;28;20233;-74
2023/11/15 06:24:50;;;;;;;15.37;1.63;;;9.30;87.70;;;;;;5013479;28;20453;-74
2023/11/15 06:27:17;;;;;;;7.97;1.37;;;9.20;87.30;;;;;;5014370;28;20949;-76
2023/11/15 06:29:53;;;;;;;3.33;1.27;;;9.20;87.80;;;;;;5010776;28;20531;-76
2023/11/15 06:32:19;;;;;;;5.27;1.30;;;9.20;88.00;;;;;;5013624;28;20440;-75
2023/11/15 06:34:46;;;;;;;5.27;1.30;;;9.20;87.80;;;;;;5008350;28;20465;-75
2023/11/15 06:37:15;;;;;;;1.63;1.20;;;9.20;88.10;;;;;;5000781;28;20217;-77
2023/11/15 06:39:44;;;;;;;4.30;1.23;;;9.20;87.80;;;;;;5013020;28;20844;-76
2023/11/15 06:42:12;;;;;;;1.87;1.00;;;9.20;87.80;;;;;;5009725;28;20436;-76
2023/11/15 06:44:38;;;;;;;5.03;1.50;;;9.10;87.80;;;;;;5009440;28;20492;-75
2023/11/15 06:47:06;;;;;;;4.80;1.40;;;9.20;88.30;;;;;;5012985;28;21032;-76
2023/11/15 06:49:32;;;;;;;3.03;1.60;;;9.20;88.40;;;;;;5011091;28;20828;-76
2023/11/15 06:51:58;;;;;;;3.70;1.40;;;9.20;88.60;;;;;;4992868;28;20996;-75
2023/11/15 06:54:23;;;;;;;2.13;1.23;;;9.30;88.60;;;;;;5009929;28;20492;-76
2023/11/15 06:56:49;;;;;;;3.47;1.37;;;9.20;88.60;;;;;;5013561;28;20196;-76
2023/11/15 06:59:18;;;;;;;4.67;1.90;;;9.20;88.70;;;;;;5013949;28;20717;-75
2023/11/15 07:01:47;;;;;;;4.60;1.27;;;9.30;88.70;;;;;;5011738;28;20608;-76
2023/11/15 07:04:19;;;;;;;2.50;1.40;;;9.20;88.60;;;;;;4995536;28;20815;-75
2023/11/15 07:06:46;;;;;;;3.27;1.80;;;9.20;88.90;;;;;;5015856;28;20619;-75
2023/11/15 07:09:21;;;;;;;9.30;1.93;;;9.20;88.60;;;;;;5016590;28;20424;-76
2023/11/15 07:11:47;;;;;;;8.37;1.40;;;9.10;88.70;;;;;;4998763;28;20436;-75
2023/11/15 07:14:16;;;;;;;8.00;1.40;;;9.20;88.90;;;;;;5012775;28;20448;-75
2023/11/15 07:16:55;;;;;;;6.40;1.70;;;9.20;88.60;;;;;;5016564;28;20432;-75
2023/11/15 07:19:24;;;;;;;2.67;1.30;;;9.30;88.10;;;;;;4997028;28;20938;-75
2023/11/15 07:21:50;;;;;;;1.97;1.40;;;9.30;87.80;;;;;;5014445;28;20437;-76
2023/11/15 07:24:16;;;;;;;3.00;1.57;;;9.40;87.60;;;;;;5015118;28;20507;-75
2023/11/15 07:26:41;;;;;;;10.33;2.00;;;9.40;87.40;;;;;;5015286;28;20671;-75
2023/11/15 07:29:09;;;;;;;4.33;1.67;;;9.50;87.30;;;;;;5015396;28;20178;-76
2023/11/15 07:31:35;;;;;;;5.27;1.90;;;9.50;87.00;;;;;;5010762;28;20662;-75
2023/11/15 07:34:05;;;;;;;3.70;1.70;;;9.60;86.60;;;;;;5001908;28;20445;-76
2023/11/15 07:36:33;;;;;;;6.07;1.93;;;9.50;86.50;;;;;;5012106;28;20428;-74
2023/11/15 07:38:59;;;;;;;4.07;3.60;;;9.50;86.20;;;;;;5012541;28;20437;-77
2023/11/15 07:41:25;;;;;;;10.63;1.83;;;9.50;86.20;;;;;;5013217;28;20417;-75
2023/11/15 07:43:54;;;;;;;4.97;1.70;;;9.60;86.20;;;;;;5009036;28;20472;-75
2023/11/15 07:46:24;;;;;;;6.60;1.80;;;9.60;86.20;;;;;;5014042;28;20242;-76
2023/11/15 07:48:50;;;;;;;2.10;1.37;;;9.60;85.90;;;;;;5015779;28;20444;-76
2023/11/15 07:51:18;;;;;;;8.10;2.07;;;9.60;85.90;;;;;;5016299;28;20442;-75
2023/11/15 07:53:48;;;;;;;8.73;2.33;;;9.70;86.20;;;;;;5014408;28;20553;-74
2023/11/15 07:56:15;;;;;;;10.33;2.27;;;9.70;85.90;;;;;;5000463;28;20459;-76
2023/11/15 07:58:40;;;;;;;5.27;1.90;;;9.80;85.60;;;;;;5009371;28;20476;-74
2023/11/15 08:01:09;;;;;;;4.60;2.20;;;9.80;85.30;;;;;;5001098;28;20436;-75
2023/11/15 08:03:35;;;;;;;5.30;2.00;;;9.80;85.30;;;;;;5013010;28;20240;-75
2023/11/15 08:06:01;;;;;;;7.00;2.23;;;9.80;85.90;;;;;;5013905;28;20472;-76
2023/11/15 08:08:27;;;;;;;5.77;1.83;;;9.70;85.90;;;;;;5013217;28;20558;-75
2023/11/15 08:10:53;;;;;;;5.40;2.13;;;9.70;85.70;;;;;;5012727;28;20452;-76
2023/11/15 08:13:19;;;;;;;9.63;2.57;;;9.70;86.00;;;;;;5011166;28;20472;-74
2023/11/15 08:15:51;;;;;;;9.87;2.17;;;9.70;86.20;;;;;;5010752;28;20432;-76
2023/11/15 08:18:17;;;;;;;6.87;2.70;;;9.80;86.50;;;;;;4994553;28;20933;-76
2023/11/15 08:20:43;;;;;;;10.57;2.60;;;9.90;86.50;;;;;;5012669;28;20437;-77
2023/11/15 08:23:10;;;;;;;6.03;2.10;;;10.00;86.30;;;;;;5012671;28;20185;-75
2023/11/15 08:25:37;;;;;;;5.17;2.50;;;10.00;85.90;;;;;;5021569;28;20469;-75
2023/11/15 08:28:03;;;;;;;5.37;2.33;;;10.00;86.00;;;;;;5028542;28;20433;-73
2023/11/15 08:30:29;;;;;;;8.43;2.30;;;10.00;86.30;;;;;;5025342;28;20510;-76
2023/11/15 08:32:55;;;;;;;6.63;2.47;;;10.00;86.20;;;;;;5019685;28;20425;-75
2023/11/15 08:35:21;;;;;;;6.90;2.30;;;9.90;86.00;;;;;;5014711;28;20687;-74
2023/11/15 08:37:47;;;;;;;7.20;2.20;;;10.00;86.00;;;;;;5011532;28;20182;-75
2023/11/15 08:40:13;;;;;;;9.10;2.57;;;10.00;86.20;;;;;;5012935;28;20447;-75
2023/11/15 08:42:39;;;;;;;8.33;1.43;;;10.10;86.00;;;;;;5012586;28;20186;-75
2023/11/15 08:45:09;;;;;;;9.20;1.97;;;10.20;85.30;;;;;;4990679;28;20464;-76
2023/11/15 08:47:36;;;;;;;6.47;2.00;;;10.10;85.30;;;;;;5012698;28;20500;-75
2023/11/15 08:50:03;;;;;;;9.30;2.60;;;10.10;85.30;;;;;;5013332;28;20421;-75
2023/11/15 08:52:29;;;;;;;10.47;2.80;;;10.10;85.70;;;;;;5013207;28;20456;-75
2023/11/15 08:54:56;;;;;;;6.30;2.43;;;10.10;85.90;;;;;;4996668;28;20433;-75
2023/11/15 08:57:22;;;;;;;9.63;2.60;;;10.10;85.90;;;;;;4992638;28;21033;-74
2023/11/15 08:59:47;;;;;;;5.90;2.00;;;10.10;86.00;;;;;;5003032;28;20433;-74
2023/11/15 09:02:17;;;;;;;5.67;1.90;;;10.10;86.00;;;;;;5011378;28;20433;-75
2023/11/15 09:04:43;;;;;;;5.73;2.37;;;10.30;85.90;;;;;;5010970;28;20206;-74
2023/11/15 09:07:10;;;;;;;8.17;2.67;;;10.30;85.60;;;;;;5008642;28;20469;-76
2023/11/15 09:09:39;;;;;;;9.17;2.20;;;10.40;85.50;;;;;;5012943;28;20193;-76
2023/11/15 09:12:06;;;;;;;6.03;2.73;;;10.50;85.20;;;;;;5010025;28;20433;-74
2023/11/15 09:14:33;;;;;;;5.83;2.27;;;10.60;84.70;;;;;;5015904;28;20436;-76
2023/11/15 09:17:00;;;;;;;9.23;1.93;;;10.60;84.40;;;;;;5013663;28;20433;-76
2023/11/15 09:19:28;;;;;;;7.50;2.40;;;10.60;84.10;;;;;;5016123;28;20894;-75
2023/11/15 09:21:54;;;;;;;2.70;1.67;;;10.60;84.10;;;;;;5013722;28;20477;-75
2023/11/15 09:24:24;;;;;;;4.60;1.60;;;10.60;84.10;;;;;;5017230;28;20440;-74
2023/11/15 09:26:50;;;;;;;5.20;2.10;;;10.70;83.70;;;;;;5017802;28;20850;-74
2023/11/15 09:29:16;;;;;;;4.13;1.93;;;10.70;83.80;;;;;;5017305;28;20496;-76
2023/11/15 09:31:43;;;;;;;6.57;2.00;;;10.80;84.10;;;;;;5015357;28;20182;-75
2023/11/15 09:34:11;;;;;;;3.73;1.40;;;10.80;83.70;;;;;;5015418;28;20206;-76
2023/11/15 09:36:37;;;;;;;5.47;1.83;;;10.70;83.10;;;;;;5016197;28;20440;-73
2023/11/15 09:39:09;;;;;;;5.17;1.40;;;10.60;83.60;;;;;;5018504;28;20440;-76
2023/11/15 09:41:36;;;;;;;4.47;1.63;;;10.60;83.30;;;;;;5015605;28;20193;-73
2023/11/15 09:44:09;;;;;;;4.20;1.30;;;10.60;83.40;;;;;;5010257;28;20441;-76
2023/11/15 09:46:37;;;;;;;5.27;1.90;;;10.60;83.10;;;;;;5016627;28;20480;-75
2023/11/15 09:49:04;;;;;;;4.43;1.33;;;10.80;82.80;;;;;;5004262;28;20492;-75
2023/11/15 09:51:34;;;;;;;3.63;1.60;;;10.90;83.00;;;;;;5007649;28;20425;-75
2023/11/15 09:54:03;;;;;;;2.47;1.10;;;11.00;82.80;;;;;;5012495;28;20472;-75
2023/11/15 09:56:29;;;;;;;3.13;1.37;;;11.00;83.40;;;;;;4997280;28;20443;-74
2023/11/15 09:58:57;;;;;;;7.30;1.57;;;11.00;83.60;;;;;;5015813;28;20432;-75
2023/11/15 10:01:23;;;;;;;2.90;1.33;;;11.00;82.70;;;;;;5013261;28;20962;-75
2023/11/15 10:03:50;;;;;;;1.27;0.87;;;11.00;82.80;;;;;;5011723;28;20495;-75
2023/11/15 10:06:16;;;;;;;3.80;1.67;;;11.10;82.70;;;;;;5014777;28;20463;-76
2023/11/15 10:08:53;;;;;;;2.33;1.30;;;11.00;83.10;;;;;;5012948;28;20843;-75
2023/11/15 10:11:18;;;;;;;3.17;1.80;;;11.10;83.30;;;;;;4998373;28;20883;-75
2023/11/15 10:13:44;;;;;;;2.57;1.03;;;11.10;83.10;;;;;;5014277;28;20487;-76
2023/11/15 10:16:30;;;;;;;2.60;1.40;;;11.10;82.20;;;;;;5015092;28;20553;-75
2023/11/15 10:18:56;;;;;;;3.77;1.20;;;11.20;82.50;;;;;;5011213;28;20864;-73
2023/11/15 10:21:22;;;;;;;0.90;0.90;;;11.10;81.80;;;;;;5013359;28;20464;-74
2023/11/15 10:23:51;;;;;;;3.67;1.30;;;11.10;82.40;;;;;;5011717;28;20461;-76
2023/11/15 10:26:18;;;;;;;2.20;1.20;;;11.20;81.90;;;;;;5008867;28;20464;-75
2023/11/15 10:28:49;;;;;;;1.83;0.90;;;11.40;81.80;;;;;;5015211;28;20566;-73
2023/11/15 10:31:15;;;;;;;2.63;1.10;;;11.50;80.80;;;;;;5012548;28;20815;-74
2023/11/15 10:33:50;;;;;;;2.13;1.03;;;11.60;80.60;;;;;;5017433;28;20444;-76
2023/11/15 10:36:17;;;;;;;5.90;1.63;;;11.70;79.20;;;;;;5018305;28;20417;-75
2023/11/15 10:38:45;;;;;;;2.27;1.00;;;11.80;79.30;;;;;;5002884;28;20425;-74
2023/11/15 10:41:17;;;;;;;2.10;0.93;;;11.80;78.90;;;;;;5011135;28;20443;-74
2023/11/15 10:43:50;;;;;;;1.83;1.03;;;11.80;79.50;;;;;;5029823;28;20455;-75
2023/11/15 10:46:18;;;;;;;2.20;1.43;;;11.70;80.00;;;;;;5028474;28;20511;-73
2023/11/15 10:48:45;;;;;;;2.33;1.20;;;11.60;79.00;;;;;;5022817;28;20487;-75
2023/11/15 10:51:20;;;;;;;3.43;1.03;;;11.60;79.60;;;;;;5014714;28;20863;-75
2023/11/15 10:53:46;;;;;;;1.60;1.10;;;11.60;79.30;;;;;;5013540;28;20463;-74
2023/11/15 10:56:17;;;;;;;3.77;1.10;;;11.60;79.50;;;;;;5013574;28;20464;-76
2023/11/15 10:58:48;;;;;;;3.87;1.30;;;11.60;79.60;;;;;;5013872;28;20436;-75
2023/11/15 11:01:18;;;;;;;4.90;1.50;;;11.70;79.70;;;;;;5013718;28;20429;-75
2023/11/15 11:03:49;;;;;;;2.10;1.00;;;11.90;79.50;;;;;;5013563;28;20445;-75
2023/11/15 11:06:50;;;;;;;1.80;1.00;;;11.90;77.30;;;;;;5013597;28;20965;-75
2023/11/15 11:09:21;;;;;;;2.83;1.37;;;12.00;76.40;;;;;;4973035;28;20438;-74
2023/11/15 11:11:56;;;;;;;3.00;1.30;;;12.00;76.20;;;;;;4972104;28;20411;-75
2023/11/15 11:14:28;;;;;;;2.97;1.10;;;12.10;77.00;;;;;;4971737;28;20531;-77
2023/11/15 11:16:56;;;;;;;2.20;1.00;;;12.20;76.20;;;;;;4972665;28;20613;-77
2023/11/15 11:19:22;;;;;;;3.30;1.07;;;12.10;74.60;;;;;;4972423;28;20468;-76
2023/11/15 11:22:08;;;;;;;1.37;1.00;;;12.10;74.80;;;;;;4972451;28;20426;-75
2023/11/15 11:24:45;;;;;;;4.23;1.20;;;12.10;74.00;;;;;;4974237;28;20477;-73
2023/11/15 11:27:16;;;;;;;2.13;1.00;;;12.00;73.60;;;;;;4976271;28;20524;-75
2023/11/15 11:29:50;;;;;;;5.53;1.30;;;12.00;73.70;;;;;;4979243;28;20450;-75
2023/11/15 11:32:34;;;;;;;5.83;1.00;;;12.10;73.30;;;;;;4975205;28;20438;-75
2023/11/15 11:35:05;;;;;;;4.80;2.33;;;12.10;72.60;;;;;;4971288;28;20518;-77
2023/11/15 11:37:47;;;;;;;3.90;1.47;;;12.10;72.70;;;;;;4979010;28;20434;-74
2023/11/15 11:40:14;;;;;;;2.60;1.13;;;12.20;72.60;;;;;;4981091;28;20431;-75
2023/11/15 11:42:41;;;;;;;4.33;1.17;;;12.30;71.70;;;;;;4972049;28;20566;-77
2023/11/15 11:45:08;;;;;;;3.40;1.10;;;12.30;71.00;;;;;;4979686;28;20484;-76
2023/11/15 11:47:46;;;;;;;2.80;1.20;;;12.30;72.00;;;;;;5013929;28;20582;-75
2023/11/15 11:50:19;;;;;;;1.60;1.03;;;12.40;71.70;;;;;;5014221;28;20429;-75
2023/11/15 11:52:45;;;;;;;4.77;1.83;;;12.40;70.70;;;;;;5013542;28;20433;-76
2023/11/15 11:55:12;;;;;;;4.20;1.30;;;12.40;71.00;;;;;;5013676;28;20451;-75
2023/11/15 11:57:39;;;;;;;4.00;1.60;;;12.40;71.30;;;;;;5013370;28;20244;-76
2023/11/15 12:00:15;;;;;;;7.00;1.10;;;12.40;71.10;;;;;;5013837;28;20432;-76
2023/11/15 12:02:49;;;;;;;7.50;1.50;;;12.50;70.70;;;;;;5011766;28;20955;-75
2023/11/15 12:05:20;;;;;;;2.13;1.20;;;12.50;70.70;;;;;;5012236;28;20678;-75
2023/11/15 12:07:48;;;;;;;5.90;1.57;;;12.50;70.10;;;;;;5000088;28;21000;-75
2023/11/15 12:10:15;;;;;;;3.23;1.30;;;12.60;69.80;;;;;;4994275;28;20477;-76
2023/11/15 12:12:41;;;;;;;1.57;1.10;;;12.70;69.80;;;;;;4992852;28;20453;-74
2023/11/15 12:15:08;;;;;;;3.53;2.00;;;12.80;69.20;;;;;;4992910;28;20500;-75
2023/11/15 12:17:42;;;;;;;2.00;1.20;;;12.80;69.40;;;;;;4992425;28;20414;-77
2023/11/15 12:20:33;;;;;;;4.30;1.40;;;12.90;68.80;;;;;;4992874;28;20413;-75
2023/11/15 12:23:03;;;;;;;6.10;1.33;;;13.10;68.20;;;;;;4991762;28;20446;-76
2023/11/15 12:25:32;;;;;;;3.10;1.13;;;13.30;67.60;;;;;;4992749;28;20441;-74
2023/11/15 12:28:01;;;;;;;6.33;1.83;;;13.30;67.50;;;;;;4993148;28;20422;-77
2023/11/15 12:30:32;;;;;;;8.03;1.27;;;13.10;66.70;;;;;;4993018;28;20512;-76
2023/11/15 12:33:01;;;;;;;5.87;1.20;;;12.80;67.70;;;;;;4996300;28;20424;-76
2023/11/15 12:35:31;;;;;;;2.53;1.00;;;12.70;67.70;;;;;;5012914;28;20503;-75
2023/11/15 12:38:03;;;;;;;3.53;1.23;;;12.80;67.90;;;;;;5012974;28;20459;-74
2023/11/15 12:40:29;;;;;;;4.33;1.10;;;12.80;67.90;;;;;;5012481;28;20436;-74
2023/11/15 12:42:56;;;;;;;4.70;1.20;;;12.70;67.50;;;;;;5012679;28;20429;-76
2023/11/15 12:45:43;;;;;;;1.30;0.93;;;12.80;67.50;;;;;;5014814;28;20592;-76
2023/11/15 12:48:10;;;;;;;1.93;1.20;;;12.80;68.00;;;;;;4997455;28;20504;-76
2023/11/15 12:50:39;;;;;;;5.20;1.30;;;12.90;68.00;;;;;;5018994;28;20461;-76